sensor_id;sensor_type;location;lat;lon;timestamp;pressure;altitude;pressure_sealevel;temperature;humidity
39051;BME280;24805;55.852;37.644;2022-10-15T00:00:25;100118.47;;;9.57;48.39
39051;BME280;24805;55.852;37.644;2022-10-15T00:05:27;100120.94;;;9.58;47.14
39051;BME280;24805;55.852;37.644;2022-10-15T00:10:29;100127.56;;;9.62;47.32
39051;BME280;24805;55.852;37.644;2022-10-15T00:15:31;100121.59;;;9.60;47.21
39051;BME280;24805;55.852;37.644;2022-10-15T00:20:33;100124.91;;;9.54;47.30
39051;BME280;24805;55.852;37.644;2022-10-15T00:25:35;100120.59;;;9.53;47.35
39051;BME280;24805;55.852;37.644;2022-10-15T00:30:38;100118.41;;;9.49;47.72
39051;BME280;24805;55.852;37.644;2022-10-15T00:35:40;100122.03;;;9.48;47.73
39051;BME280;24805;55.852;37.644;2022-10-15T00:40:42;100115.06;;;9.47;47.66
39051;BME280;24805;55.852;37.644;2022-10-15T00:45:44;100125.66;;;9.47;47.52
39051;BME280;24805;55.852;37.644;2022-10-15T00:50:46;100125.13;;;9.43;48.22
39051;BME280;24805;55.852;37.644;2022-10-15T00:55:48;100127.44;;;9.38;47.39
39051;BME280;24805;55.852;37.644;2022-10-15T01:00:52;100127.59;;;9.37;48.16
39051;BME280;24805;55.852;37.644;2022-10-15T01:05:54;100123.91;;;9.29;48.27
39051;BME280;24805;55.852;37.644;2022-10-15T01:16:10;100120.72;;;9.26;48.79
39051;BME280;24805;55.852;37.644;2022-10-15T01:21:22;100133.81;;;9.27;47.82
39051;BME280;24805;55.852;37.644;2022-10-15T01:41:55;100145.00;;;9.21;48.41
39051;BME280;24805;55.852;37.644;2022-10-15T01:47:07;100143.19;;;9.22;47.79
39051;BME280;24805;55.852;37.644;2022-10-15T01:52:14;100146.31;;;9.17;48.36
39051;BME280;24805;55.852;37.644;2022-10-15T01:57:18;100144.13;;;9.13;48.71
39051;BME280;24805;55.852;37.644;2022-10-15T02:02:21;100138.16;;;9.11;49.00
39051;BME280;24805;55.852;37.644;2022-10-15T02:12:37;100146.91;;;9.11;48.73
39051;BME280;24805;55.852;37.644;2022-10-15T02:17:54;100157.50;;;9.11;48.39
39051;BME280;24805;55.852;37.644;2022-10-15T02:23:02;100158.34;;;9.12;48.65
39051;BME280;24805;55.852;37.644;2022-10-15T02:28:06;100164.63;;;9.11;49.06
39051;BME280;24805;55.852;37.644;2022-10-15T02:33:09;100150.53;;;9.10;49.04
39051;BME280;24805;55.852;37.644;2022-10-15T02:38:13;100162.13;;;9.09;49.01
39051;BME280;24805;55.852;37.644;2022-10-15T02:43:19;100166.03;;;9.05;48.94
39051;BME280;24805;55.852;37.644;2022-10-15T02:48:21;100170.34;;;9.06;48.95
39051;BME280;24805;55.852;37.644;2022-10-15T02:53:23;100174.91;;;9.14;49.21
39051;BME280;24805;55.852;37.644;2022-10-15T02:58:25;100171.28;;;9.15;48.94
39051;BME280;24805;55.852;37.644;2022-10-15T03:03:30;100170.44;;;9.14;49.28
39051;BME280;24805;55.852;37.644;2022-10-15T03:08:33;100181.88;;;9.15;49.15
39051;BME280;24805;55.852;37.644;2022-10-15T03:13:37;100176.72;;;9.13;49.46
39051;BME280;24805;55.852;37.644;2022-10-15T03:18:40;100181.03;;;9.14;49.00
39051;BME280;24805;55.852;37.644;2022-10-15T03:23:44;100172.47;;;9.20;49.10
39051;BME280;24805;55.852;37.644;2022-10-15T03:28:56;100180.31;;;9.30;48.69
39051;BME280;24805;55.852;37.644;2022-10-15T03:34:09;100178.22;;;9.33;48.93
39051;BME280;24805;55.852;37.644;2022-10-15T03:39:11;100179.88;;;9.35;48.43
39051;BME280;24805;55.852;37.644;2022-10-15T03:44:14;100186.31;;;9.32;48.59
39051;BME280;24805;55.852;37.644;2022-10-15T03:49:20;100177.84;;;9.28;48.67
39051;BME280;24805;55.852;37.644;2022-10-15T03:54:22;100184.94;;;9.28;49.05
39051;BME280;24805;55.852;37.644;2022-10-15T03:59:26;100184.50;;;9.32;48.34
39051;BME280;24805;55.852;37.644;2022-10-15T04:04:33;100181.84;;;9.32;48.73
39051;BME280;24805;55.852;37.644;2022-10-15T04:09:36;100187.28;;;9.31;48.50
39051;BME280;24805;55.852;37.644;2022-10-15T04:14:57;100205.44;;;9.26;48.77
39051;BME280;24805;55.852;37.644;2022-10-15T04:19:59;100198.19;;;9.28;48.58
39051;BME280;24805;55.852;37.644;2022-10-15T04:25:01;100195.31;;;9.21;49.15
39051;BME280;24805;55.852;37.644;2022-10-15T04:30:04;100195.31;;;9.21;49.20
39051;BME280;24805;55.852;37.644;2022-10-15T04:35:06;100200.59;;;9.21;49.35
39051;BME280;24805;55.852;37.644;2022-10-15T04:40:34;100209.84;;;9.17;49.62
39051;BME280;24805;55.852;37.644;2022-10-15T04:45:36;100204.41;;;9.19;49.54
39051;BME280;24805;55.852;37.644;2022-10-15T04:50:38;100207.94;;;9.27;48.97
39051;BME280;24805;55.852;37.644;2022-10-15T04:55:52;100211.03;;;9.41;48.87
39051;BME280;24805;55.852;37.644;2022-10-15T05:00:54;100219.41;;;9.54;48.96
39051;BME280;24805;55.852;37.644;2022-10-15T05:06:04;100209.09;;;9.68;49.20
39051;BME280;24805;55.852;37.644;2022-10-15T05:11:08;100214.13;;;9.80;48.80
39051;BME280;24805;55.852;37.644;2022-10-15T05:16:17;100215.84;;;9.89;48.73
39051;BME280;24805;55.852;37.644;2022-10-15T05:21:20;100224.31;;;9.92;48.51
39051;BME280;24805;55.852;37.644;2022-10-15T05:26:27;100218.72;;;9.95;48.42
39051;BME280;24805;55.852;37.644;2022-10-15T05:31:30;100219.72;;;10.02;48.33
39051;BME280;24805;55.852;37.644;2022-10-15T05:36:45;100219.28;;;10.07;48.91
39051;BME280;24805;55.852;37.644;2022-10-15T05:41:49;100222.81;;;10.16;48.55
39051;BME280;24805;55.852;37.644;2022-10-15T05:46:51;100219.53;;;10.22;48.34
39051;BME280;24805;55.852;37.644;2022-10-15T05:51:56;100225.88;;;10.29;48.92
39051;BME280;24805;55.852;37.644;2022-10-15T05:57:33;100237.00;;;10.32;47.78
39051;BME280;24805;55.852;37.644;2022-10-15T06:02:37;100235.03;;;10.34;48.13
39051;BME280;24805;55.852;37.644;2022-10-15T06:07:39;100233.38;;;10.42;48.40
39051;BME280;24805;55.852;37.644;2022-10-15T06:12:41;100238.38;;;10.45;47.52
39051;BME280;24805;55.852;37.644;2022-10-15T06:17:43;100244.16;;;10.40;47.81
39051;BME280;24805;55.852;37.644;2022-10-15T06:22:45;100245.19;;;10.39;47.91
39051;BME280;24805;55.852;37.644;2022-10-15T06:27:47;100245.00;;;10.41;47.53
39051;BME280;24805;55.852;37.644;2022-10-15T06:32:49;100241.56;;;10.48;47.57
39051;BME280;24805;55.852;37.644;2022-10-15T06:37:52;100250.22;;;10.58;47.51
39051;BME280;24805;55.852;37.644;2022-10-15T06:42:54;100241.50;;;10.74;47.47
39051;BME280;24805;55.852;37.644;2022-10-15T06:47:56;100244.84;;;10.92;46.90
39051;BME280;24805;55.852;37.644;2022-10-15T06:52:57;100246.06;;;11.14;47.01
39051;BME280;24805;55.852;37.644;2022-10-15T06:58:04;100259.88;;;11.34;46.99
39051;BME280;24805;55.852;37.644;2022-10-15T07:03:06;100258.03;;;11.43;46.43
39051;BME280;24805;55.852;37.644;2022-10-15T07:08:08;100257.22;;;11.50;46.14
39051;BME280;24805;55.852;37.644;2022-10-15T07:13:13;100267.03;;;11.66;45.98
39051;BME280;24805;55.852;37.644;2022-10-15T07:18:15;100262.53;;;11.66;46.05
39051;BME280;24805;55.852;37.644;2022-10-15T07:23:17;100277.31;;;11.61;45.81
39051;BME280;24805;55.852;37.644;2022-10-15T07:28:23;100263.88;;;11.70;45.62
39051;BME280;24805;55.852;37.644;2022-10-15T07:33:25;100274.53;;;11.79;44.76
39051;BME280;24805;55.852;37.644;2022-10-15T07:38:33;100267.53;;;11.69;45.13
39051;BME280;24805;55.852;37.644;2022-10-15T07:43:36;100285.97;;;11.71;45.10
39051;BME280;24805;55.852;37.644;2022-10-15T07:48:38;100289.13;;;11.74;45.09
39051;BME280;24805;55.852;37.644;2022-10-15T07:53:40;100285.81;;;11.89;44.44
39051;BME280;24805;55.852;37.644;2022-10-15T07:58:44;100286.13;;;12.10;44.74
39051;BME280;24805;55.852;37.644;2022-10-15T08:03:52;100289.91;;;12.32;44.36
39051;BME280;24805;55.852;37.644;2022-10-15T08:08:54;100291.03;;;12.46;44.38
39051;BME280;24805;55.852;37.644;2022-10-15T08:13:58;100289.19;;;12.54;44.11
39051;BME280;24805;55.852;37.644;2022-10-15T08:19:00;100280.50;;;12.60;43.65
39051;BME280;24805;55.852;37.644;2022-10-15T08:24:04;100273.19;;;12.62;43.53
39051;BME280;24805;55.852;37.644;2022-10-15T08:29:08;100290.44;;;12.74;42.98
39051;BME280;24805;55.852;37.644;2022-10-15T08:34:10;100293.94;;;12.75;43.21
39051;BME280;24805;55.852;37.644;2022-10-15T08:39:12;100288.16;;;12.63;42.89
39051;BME280;24805;55.852;37.644;2022-10-15T08:44:19;100299.84;;;12.54;43.16
39051;BME280;24805;55.852;37.644;2022-10-15T08:49:32;100294.50;;;12.54;43.03
39051;BME280;24805;55.852;37.644;2022-10-15T08:54:36;100300.19;;;12.51;43.07
39051;BME280;24805;55.852;37.644;2022-10-15T08:59:39;100300.00;;;12.53;43.26
39051;BME280;24805;55.852;37.644;2022-10-15T09:10:14;100287.63;;;12.68;42.50
39051;BME280;24805;55.852;37.644;2022-10-15T09:15:18;100298.56;;;12.81;43.13
39051;BME280;24805;55.852;37.644;2022-10-15T09:20:32;100297.50;;;12.98;42.84
39051;BME280;24805;55.852;37.644;2022-10-15T09:25:34;100290.56;;;13.20;42.66
39051;BME280;24805;55.852;37.644;2022-10-15T09:30:45;100286.59;;;13.39;42.08
39051;BME280;24805;55.852;37.644;2022-10-15T09:35:49;100285.81;;;13.38;41.94
39051;BME280;24805;55.852;37.644;2022-10-15T09:46:17;100293.25;;;13.43;41.59
39051;BME280;24805;55.852;37.644;2022-10-15T09:51:30;100293.81;;;13.38;41.60
39051;BME280;24805;55.852;37.644;2022-10-15T09:56:44;100290.41;;;13.44;41.53
39051;BME280;24805;55.852;37.644;2022-10-15T10:01:58;100288.09;;;13.41;40.84
39051;BME280;24805;55.852;37.644;2022-10-15T10:07:02;100286.50;;;13.32;40.90
39051;BME280;24805;55.852;37.644;2022-10-15T10:12:06;100288.38;;;13.24;40.96
39051;BME280;24805;55.852;37.644;2022-10-15T10:17:19;100290.44;;;13.14;40.76
39051;BME280;24805;55.852;37.644;2022-10-15T10:22:21;100294.91;;;13.13;40.83
39051;BME280;24805;55.852;37.644;2022-10-15T10:27:24;100288.78;;;13.04;40.22
39051;BME280;24805;55.852;37.644;2022-10-15T10:32:29;100286.31;;;13.03;41.45
39051;BME280;24805;55.852;37.644;2022-10-15T10:37:41;100283.78;;;13.09;40.71
39051;BME280;24805;55.852;37.644;2022-10-15T10:42:44;100288.91;;;13.19;41.30
39051;BME280;24805;55.852;37.644;2022-10-15T10:47:47;100290.22;;;13.23;40.51
39051;BME280;24805;55.852;37.644;2022-10-15T10:52:49;100287.56;;;13.23;40.84
39051;BME280;24805;55.852;37.644;2022-10-15T10:57:52;100293.00;;;13.30;40.81
39051;BME280;24805;55.852;37.644;2022-10-15T11:02:55;100286.09;;;13.43;41.04
39051;BME280;24805;55.852;37.644;2022-10-15T11:07:59;100277.56;;;13.48;40.88
39051;BME280;24805;55.852;37.644;2022-10-15T11:33:43;100284.69;;;13.56;40.58
39051;BME280;24805;55.852;37.644;2022-10-15T11:39:05;100281.19;;;13.55;40.96
39051;BME280;24805;55.852;37.644;2022-10-15T11:44:31;100278.78;;;13.60;40.70
39051;BME280;24805;55.852;37.644;2022-10-15T12:05:20;100284.50;;;15.48;40.16
39051;BME280;24805;55.852;37.644;2022-10-15T12:20:42;100257.44;;;17.37;39.40
39051;BME280;24805;55.852;37.644;2022-10-15T12:25:45;100274.56;;;18.55;38.74
39051;BME280;24805;55.852;37.644;2022-10-15T12:30:54;100264.38;;;18.77;36.37
39051;BME280;24805;55.852;37.644;2022-10-15T12:36:00;100263.00;;;18.41;37.06
39051;BME280;24805;55.852;37.644;2022-10-15T12:41:10;100270.88;;;18.36;36.44
39051;BME280;24805;55.852;37.644;2022-10-15T12:46:15;100263.84;;;18.35;36.10
39051;BME280;24805;55.852;37.644;2022-10-15T12:56:23;100264.97;;;19.23;34.32
39051;BME280;24805;55.852;37.644;2022-10-15T13:01:26;100270.34;;;19.23;34.03
39051;BME280;24805;55.852;37.644;2022-10-15T13:06:33;100264.13;;;19.30;34.37
39051;BME280;24805;55.852;37.644;2022-10-15T13:11:39;100267.31;;;19.13;33.92
39051;BME280;24805;55.852;37.644;2022-10-15T13:16:42;100270.84;;;19.07;33.41
39051;BME280;24805;55.852;37.644;2022-10-15T13:21:46;100255.25;;;18.84;33.36
39051;BME280;24805;55.852;37.644;2022-10-15T13:26:50;100263.22;;;18.40;32.44
39051;BME280;24805;55.852;37.644;2022-10-15T13:31:53;100258.03;;;17.26;33.68
39051;BME280;24805;55.852;37.644;2022-10-15T13:36:57;100259.06;;;17.18;34.50
39051;BME280;24805;55.852;37.644;2022-10-15T13:52:28;100258.97;;;16.99;34.19
39051;BME280;24805;55.852;37.644;2022-10-15T13:57:31;100267.13;;;16.36;34.88
39051;BME280;24805;55.852;37.644;2022-10-15T14:02:34;100271.91;;;15.64;34.93
39051;BME280;24805;55.852;37.644;2022-10-15T14:07:35;100271.22;;;14.98;35.00
39051;BME280;24805;55.852;37.644;2022-10-15T14:12:37;100272.78;;;14.33;35.77
39051;BME280;24805;55.852;37.644;2022-10-15T14:17:39;100279.91;;;14.03;35.98
39051;BME280;24805;55.852;37.644;2022-10-15T14:22:41;100278.56;;;13.70;35.72
39051;BME280;24805;55.852;37.644;2022-10-15T14:27:44;100286.50;;;13.32;36.33
39051;BME280;24805;55.852;37.644;2022-10-15T14:32:47;100288.84;;;12.96;36.57
39051;BME280;24805;55.852;37.644;2022-10-15T14:38:02;100295.97;;;12.65;37.30
39051;BME280;24805;55.852;37.644;2022-10-15T14:43:05;100302.34;;;12.39;37.40
39051;BME280;24805;55.852;37.644;2022-10-15T14:48:08;100295.59;;;12.21;37.35
39051;BME280;24805;55.852;37.644;2022-10-15T14:53:17;100305.91;;;11.99;37.52
39051;BME280;24805;55.852;37.644;2022-10-15T14:58:20;100307.75;;;11.83;38.06
39051;BME280;24805;55.852;37.644;2022-10-15T15:03:56;100312.03;;;11.67;39.20
39051;BME280;24805;55.852;37.644;2022-10-15T15:08:51;100319.84;;;11.53;39.81
39051;BME280;24805;55.852;37.644;2022-10-15T15:13:53;100316.81;;;11.39;40.34
39051;BME280;24805;55.852;37.644;2022-10-15T15:18:56;100317.13;;;11.28;39.91
39051;BME280;24805;55.852;37.644;2022-10-15T15:23:58;100319.97;;;11.19;39.28
39051;BME280;24805;55.852;37.644;2022-10-15T15:29:01;100332.00;;;11.05;40.26
39051;BME280;24805;55.852;37.644;2022-10-15T15:34:03;100332.31;;;10.94;40.41
39051;BME280;24805;55.852;37.644;2022-10-15T15:39:05;100322.31;;;10.88;40.86
39051;BME280;24805;55.852;37.644;2022-10-15T15:44:10;100328.59;;;10.79;41.59
39051;BME280;24805;55.852;37.644;2022-10-15T15:49:13;100332.72;;;10.73;40.77
39051;BME280;24805;55.852;37.644;2022-10-15T15:54:15;100330.53;;;10.68;41.50
39051;BME280;24805;55.852;37.644;2022-10-15T15:59:17;100334.63;;;10.63;41.14
39051;BME280;24805;55.852;37.644;2022-10-15T16:04:20;100337.13;;;10.56;41.10
39051;BME280;24805;55.852;37.644;2022-10-15T16:09:22;100332.59;;;10.49;41.51
39051;BME280;24805;55.852;37.644;2022-10-15T16:14:24;100330.41;;;10.44;41.85
39051;BME280;24805;55.852;37.644;2022-10-15T16:19:26;100336.16;;;10.40;41.53
39051;BME280;24805;55.852;37.644;2022-10-15T16:24:29;100332.66;;;10.31;42.09
39051;BME280;24805;55.852;37.644;2022-10-15T16:29:31;100342.03;;;10.25;41.70
39051;BME280;24805;55.852;37.644;2022-10-15T16:34:33;100337.19;;;10.21;42.10
39051;BME280;24805;55.852;37.644;2022-10-15T16:39:35;100345.63;;;10.16;42.53
39051;BME280;24805;55.852;37.644;2022-10-15T16:44:38;100343.41;;;10.12;43.64
39051;BME280;24805;55.852;37.644;2022-10-15T16:49:40;100345.53;;;10.08;43.99
39051;BME280;24805;55.852;37.644;2022-10-15T16:54:43;100352.81;;;10.06;43.86
39051;BME280;24805;55.852;37.644;2022-10-15T16:59:45;100354.25;;;10.00;43.47
39051;BME280;24805;55.852;37.644;2022-10-15T17:04:47;100346.78;;;9.96;42.63
39051;BME280;24805;55.852;37.644;2022-10-15T17:09:49;100348.44;;;9.97;42.84
39051;BME280;24805;55.852;37.644;2022-10-15T17:14:51;100356.56;;;9.95;42.56
39051;BME280;24805;55.852;37.644;2022-10-15T17:19:53;100362.00;;;9.94;43.33
39051;BME280;24805;55.852;37.644;2022-10-15T17:24:56;100362.00;;;9.94;43.87
39051;BME280;24805;55.852;37.644;2022-10-15T17:29:58;100370.94;;;9.93;43.54
39051;BME280;24805;55.852;37.644;2022-10-15T17:35:01;100373.91;;;9.90;43.30
39051;BME280;24805;55.852;37.644;2022-10-15T17:40:05;100377.22;;;9.92;44.38
39051;BME280;24805;55.852;37.644;2022-10-15T17:45:08;100372.75;;;9.92;45.91
39051;BME280;24805;55.852;37.644;2022-10-15T17:50:11;100374.72;;;9.90;45.74
39051;BME280;24805;55.852;37.644;2022-10-15T17:55:15;100380.31;;;9.87;43.48
39051;BME280;24805;55.852;37.644;2022-10-15T18:00:17;100388.44;;;9.86;43.81
39051;BME280;24805;55.852;37.644;2022-10-15T18:05:19;100385.78;;;9.86;44.42
39051;BME280;24805;55.852;37.644;2022-10-15T18:10:23;100397.22;;;9.86;44.08
39051;BME280;24805;55.852;37.644;2022-10-15T18:15:25;100390.25;;;9.85;44.15
39051;BME280;24805;55.852;37.644;2022-10-15T18:20:28;100394.84;;;9.83;43.77
39051;BME280;24805;55.852;37.644;2022-10-15T18:25:31;100395.16;;;9.80;44.40
39051;BME280;24805;55.852;37.644;2022-10-15T18:30:37;100400.94;;;9.76;44.84
39051;BME280;24805;55.852;37.644;2022-10-15T18:35:40;100400.25;;;9.74;44.01
39051;BME280;24805;55.852;37.644;2022-10-15T18:40:42;100410.16;;;9.72;44.46
39051;BME280;24805;55.852;37.644;2022-10-15T18:45:45;100410.47;;;9.68;44.12
39051;BME280;24805;55.852;37.644;2022-10-15T18:50:47;100410.59;;;9.67;44.42
39051;BME280;24805;55.852;37.644;2022-10-15T18:55:49;100412.56;;;9.65;44.52
39051;BME280;24805;55.852;37.644;2022-10-15T19:00:52;100419.97;;;9.61;44.41
39051;BME280;24805;55.852;37.644;2022-10-15T19:05:54;100414.69;;;9.61;44.80
39051;BME280;24805;55.852;37.644;2022-10-15T19:11:04;100421.28;;;9.57;44.54
39051;BME280;24805;55.852;37.644;2022-10-15T19:16:07;100415.59;;;9.52;44.45
39051;BME280;24805;55.852;37.644;2022-10-15T19:21:09;100424.38;;;9.53;44.52
39051;BME280;24805;55.852;37.644;2022-10-15T19:26:12;100426.19;;;9.52;44.44
39051;BME280;24805;55.852;37.644;2022-10-15T19:31:48;100433.03;;;9.45;44.33
39051;BME280;24805;55.852;37.644;2022-10-15T19:36:43;100450.91;;;9.43;45.13
39051;BME280;24805;55.852;37.644;2022-10-15T19:41:47;100444.78;;;9.43;45.23
39051;BME280;24805;55.852;37.644;2022-10-15T19:46:50;100445.75;;;9.42;44.63
39051;BME280;24805;55.852;37.644;2022-10-15T19:51:52;100455.00;;;9.38;45.14
39051;BME280;24805;55.852;37.644;2022-10-15T19:56:54;100458.06;;;9.33;45.03
39051;BME280;24805;55.852;37.644;2022-10-15T20:01:56;100460.88;;;9.31;44.80
39051;BME280;24805;55.852;37.644;2022-10-15T20:06:58;100464.63;;;9.29;44.58
39051;BME280;24805;55.852;37.644;2022-10-15T20:11:59;100465.34;;;9.21;44.96
39051;BME280;24805;55.852;37.644;2022-10-15T20:17:02;100470.66;;;9.21;44.99
39051;BME280;24805;55.852;37.644;2022-10-15T20:22:05;100468.16;;;9.20;44.81
39051;BME280;24805;55.852;37.644;2022-10-15T20:27:07;100466.66;;;9.17;44.95
39051;BME280;24805;55.852;37.644;2022-10-15T20:32:09;100466.94;;;9.14;44.79
39051;BME280;24805;55.852;37.644;2022-10-15T20:37:34;100467.91;;;9.13;44.36
39051;BME280;24805;55.852;37.644;2022-10-15T20:42:36;100475.03;;;9.13;44.56
39051;BME280;24805;55.852;37.644;2022-10-15T20:47:40;100497.31;;;9.10;44.65
39051;BME280;24805;55.852;37.644;2022-10-15T20:52:43;100490.63;;;9.06;44.85
39051;BME280;24805;55.852;37.644;2022-10-15T20:57:46;100501.38;;;9.05;44.81
39051;BME280;24805;55.852;37.644;2022-10-15T21:02:48;100502.47;;;9.02;45.12
39051;BME280;24805;55.852;37.644;2022-10-15T21:07:50;100505.97;;;9.03;44.67
39051;BME280;24805;55.852;37.644;2022-10-15T21:12:52;100502.63;;;9.01;44.96
39051;BME280;24805;55.852;37.644;2022-10-15T21:17:54;100515.72;;;9.02;44.76
39051;BME280;24805;55.852;37.644;2022-10-15T21:22:56;100508.91;;;8.99;44.99
39051;BME280;24805;55.852;37.644;2022-10-15T21:27:58;100518.81;;;8.97;45.22
39051;BME280;24805;55.852;37.644;2022-10-15T21:33:00;100516.84;;;8.99;45.09
39051;BME280;24805;55.852;37.644;2022-10-15T21:38:02;100510.88;;;8.97;45.00
39051;BME280;24805;55.852;37.644;2022-10-15T21:43:04;100513.66;;;8.96;45.01
39051;BME280;24805;55.852;37.644;2022-10-15T21:48:06;100522.03;;;8.91;44.97
39051;BME280;24805;55.852;37.644;2022-10-15T21:53:08;100521.75;;;8.94;45.16
39051;BME280;24805;55.852;37.644;2022-10-15T21:58:10;100519.09;;;8.94;45.53
39051;BME280;24805;55.852;37.644;2022-10-15T22:03:13;100516.72;;;8.91;44.80
39051;BME280;24805;55.852;37.644;2022-10-15T22:08:15;100518.97;;;8.86;44.51
39051;BME280;24805;55.852;37.644;2022-10-15T22:13:17;100525.38;;;8.84;44.28
39051;BME280;24805;55.852;37.644;2022-10-15T22:18:19;100525.97;;;8.78;45.21
39051;BME280;24805;55.852;37.644;2022-10-15T22:23:21;100523.72;;;8.73;45.00
39051;BME280;24805;55.852;37.644;2022-10-15T22:28:28;100528.75;;;8.67;45.12
39051;BME280;24805;55.852;37.644;2022-10-15T22:33:30;100535.16;;;8.64;45.01
39051;BME280;24805;55.852;37.644;2022-10-15T22:38:32;100532.09;;;8.59;45.04
39051;BME280;24805;55.852;37.644;2022-10-15T22:43:35;100529.88;;;8.54;44.63
39051;BME280;24805;55.852;37.644;2022-10-15T22:48:38;100529.59;;;8.48;44.57
39051;BME280;24805;55.852;37.644;2022-10-15T22:53:41;100533.63;;;8.42;45.67
39051;BME280;24805;55.852;37.644;2022-10-15T22:58:43;100536.69;;;8.38;44.47
39051;BME280;24805;55.852;37.644;2022-10-15T23:03:50;100541.94;;;8.28;45.30
39051;BME280;24805;55.852;37.644;2022-10-15T23:08:52;100544.41;;;8.20;45.23
39051;BME280;24805;55.852;37.644;2022-10-15T23:13:57;100548.47;;;8.14;45.77
39051;BME280;24805;55.852;37.644;2022-10-15T23:19:00;100548.75;;;8.11;45.99
39051;BME280;24805;55.852;37.644;2022-10-15T23:24:03;100552.47;;;8.09;46.13
39051;BME280;24805;55.852;37.644;2022-10-15T23:29:05;100562.34;;;8.07;45.82
39051;BME280;24805;55.852;37.644;2022-10-15T23:34:15;100549.53;;;8.02;46.26
39051;BME280;24805;55.852;37.644;2022-10-15T23:39:18;100553.59;;;7.97;45.88
39051;BME280;24805;55.852;37.644;2022-10-15T23:44:20;100568.75;;;7.94;45.30
39051;BME280;24805;55.852;37.644;2022-10-15T23:49:26;100566.22;;;7.93;46.04
39051;BME280;24805;55.852;37.644;2022-10-15T23:54:28;100572.03;;;7.87;45.93
39051;BME280;24805;55.852;37.644;2022-10-15T23:59:30;100575.06;;;7.82;46.40
